createdAt,value
2023-04-18T00:00:26.718Z,1.50
2023-04-18T00:03:30.091Z,1.50
2023-04-18T00:06:32.811Z,1.70
2023-04-18T00:09:35.153Z,2.07
2023-04-18T00:12:37.592Z,1.90
2023-04-18T00:15:41.826Z,1.77
2023-04-18T00:18:44.108Z,1.90
2023-04-18T00:21:47.161Z,2.00
2023-04-18T00:24:50.185Z,1.60
2023-04-18T00:27:52.504Z,1.88
2023-04-18T00:30:54.989Z,1.73
2023-04-18T00:33:57.358Z,2.10
2023-04-18T00:36:59.773Z,1.73
2023-04-18T00:40:02.143Z,1.80
2023-04-18T00:43:04.731Z,1.70
2023-04-18T00:46:08.262Z,2.00
2023-04-18T00:49:11.619Z,2.17
2023-04-18T00:52:14.397Z,1.70
2023-04-18T00:55:16.906Z,2.37
2023-04-18T00:58:19.321Z,2.00
2023-04-18T01:01:22.344Z,2.30
2023-04-18T01:04:24.767Z,2.05
2023-04-18T01:07:27.085Z,1.90
2023-04-18T01:10:32.526Z,2.20
2023-04-18T01:13:34.808Z,1.80
2023-04-18T01:16:39.104Z,2.30
2023-04-18T01:19:41.433Z,2.17
2023-04-18T01:22:43.812Z,1.98
2023-04-18T01:25:47.222Z,2.60
2023-04-18T01:28:49.604Z,2.10
2023-04-18T01:31:52.351Z,2.42
2023-04-18T01:34:54.681Z,2.17
2023-04-18T01:37:57.422Z,2.38
2023-04-18T01:40:59.794Z,2.37
2023-04-18T01:44:02.386Z,2.58
2023-04-18T01:47:04.761Z,2.38
2023-04-18T01:50:08.908Z,2.35
2023-04-18T01:53:11.179Z,2.55
2023-04-18T01:56:13.570Z,2.70
2023-04-18T01:59:16.025Z,2.50
2023-04-18T02:02:18.698Z,2.60
2023-04-18T02:05:21.388Z,2.75
2023-04-18T02:08:23.720Z,2.45
2023-04-18T02:11:26.304Z,2.40
2023-04-18T02:14:31.743Z,2.72
2023-04-18T02:17:36.855Z,3.20
2023-04-18T02:20:39.353Z,2.67
2023-04-18T02:23:41.622Z,2.88
2023-04-18T02:26:44.403Z,2.90
2023-04-18T02:29:46.722Z,4.05
2023-04-18T02:32:53.207Z,3.05
2023-04-18T02:35:59.230Z,2.97
2023-04-18T02:39:01.496Z,3.53
2023-04-18T02:42:03.811Z,3.07
2023-04-18T02:45:07.336Z,3.10
2023-04-18T02:48:10.298Z,3.35
2023-04-18T02:51:12.719Z,3.35
2023-04-18T02:54:15.190Z,3.45
2023-04-18T02:57:28.214Z,3.43
2023-04-18T03:00:53.478Z,3.25
2023-04-18T03:04:16.082Z,3.45
2023-04-18T03:07:21.235Z,3.20
2023-04-18T03:10:25.723Z,3.70
2023-04-18T03:13:28.030Z,3.10
2023-04-18T03:16:32.324Z,3.50
2023-04-18T03:19:35.296Z,4.93
2023-04-18T03:22:41.933Z,4.95
2023-04-18T03:25:44.402Z,2.88
2023-04-18T03:28:46.846Z,3.07
2023-04-18T03:31:49.495Z,2.90
2023-04-18T03:34:51.868Z,3.10
2023-04-18T03:37:54.340Z,3.10
2023-04-18T03:41:02.901Z,2.90
2023-04-18T03:44:09.446Z,2.37
2023-04-18T03:47:14.756Z,3.35
2023-04-18T03:50:19.780Z,3.40
2023-04-18T03:53:23.184Z,3.92
2023-04-18T03:56:25.949Z,3.42
2023-04-18T03:59:31.000Z,3.13
2023-04-18T04:02:33.524Z,3.40
2023-04-18T04:05:36.158Z,3.40
2023-04-18T04:08:38.550Z,3.33
2023-04-18T04:11:41.324Z,3.60
2023-04-18T04:14:46.509Z,3.07
2023-04-18T04:17:50.811Z,3.38
2023-04-18T04:20:53.812Z,3.60
2023-04-18T04:24:09.995Z,3.65
2023-04-18T04:27:18.873Z,4.07
2023-04-18T04:30:22.307Z,4.33
2023-04-18T04:33:25.719Z,4.43
2023-04-18T04:36:30.694Z,4.60
2023-04-18T04:39:34.760Z,4.68
2023-04-18T04:43:03.261Z,4.93
2023-04-18T04:46:13.787Z,4.23
2023-04-18T04:49:17.905Z,4.80
2023-04-18T04:52:20.526Z,4.80
2023-04-18T04:55:22.904Z,4.63
2023-04-18T04:58:26.003Z,4.93
2023-04-18T05:01:57.571Z,4.93
2023-04-18T05:04:59.893Z,5.57
2023-04-18T05:08:02.876Z,5.03
2023-04-18T05:11:05.548Z,4.50
2023-04-18T05:14:07.865Z,5.63
2023-04-18T05:17:10.204Z,4.87
2023-04-18T05:20:12.648Z,5.25
2023-04-18T05:23:15.091Z,5.25
2023-04-18T05:26:18.827Z,6.30
2023-04-18T05:29:21.173Z,6.43
2023-04-18T05:32:23.585Z,5.73
2023-04-18T05:35:26.260Z,6.32
2023-04-18T05:38:28.528Z,6.45
2023-04-18T05:41:30.816Z,7.35
2023-04-18T05:44:33.382Z,5.72
2023-04-18T05:47:35.749Z,5.57
2023-04-18T05:50:38.107Z,5.28
2023-04-18T05:53:40.381Z,5.50
2023-04-18T05:56:42.753Z,5.00
2023-04-18T05:59:45.090Z,5.43
2023-04-18T06:02:47.478Z,4.80
2023-04-18T06:05:49.858Z,5.05
2023-04-18T06:08:52.169Z,4.82
2023-04-18T06:11:54.522Z,4.53
2023-04-18T06:14:56.825Z,4.85
2023-04-18T06:18:00.338Z,5.30
2023-04-18T06:21:02.663Z,4.82
2023-04-18T06:24:05.084Z,5.00
2023-04-18T06:27:12.725Z,4.82
2023-04-18T06:30:23.009Z,3.97
2023-04-18T06:33:25.351Z,4.33
2023-04-18T06:36:27.678Z,4.57
2023-04-18T06:39:30.352Z,3.65
2023-04-18T06:42:32.609Z,3.78
2023-04-18T06:45:35.623Z,3.67
2023-04-18T06:48:37.912Z,3.40
2023-04-18T06:51:40.183Z,3.10
2023-04-18T06:54:42.545Z,2.78
2023-04-18T06:57:44.864Z,2.88
2023-04-18T07:00:51.870Z,2.50
2023-04-18T07:03:54.309Z,1.50
2023-04-18T07:06:56.701Z,1.50
2023-04-18T07:09:59.224Z,1.20
2023-04-18T07:13:01.796Z,1.10
2023-04-18T07:16:05.740Z,1.95
2023-04-18T07:19:08.421Z,1.10
2023-04-18T07:22:10.941Z,3.70
2023-04-18T07:25:13.241Z,1.92
2023-04-18T07:28:15.632Z,1.27
2023-04-18T07:31:21.026Z,1.60
2023-04-18T07:34:23.480Z,1.60
2023-04-18T07:37:26.238Z,1.33
2023-04-18T07:40:28.546Z,1.33
2023-04-18T07:43:30.856Z,1.85
2023-04-18T07:46:34.595Z,1.30
2023-04-18T07:49:37.557Z,1.00
2023-04-18T07:52:39.896Z,0.85
2023-04-18T07:55:43.346Z,0.90
2023-04-18T07:58:45.669Z,0.93
2023-04-18T08:01:47.992Z,0.80
2023-04-18T08:04:52.413Z,0.90
2023-04-18T08:07:54.931Z,0.73
2023-04-18T08:10:57.356Z,0.90
2023-04-18T08:13:59.811Z,0.75
2023-04-18T08:17:02.155Z,0.73
2023-04-18T08:20:07.484Z,0.80
2023-04-18T08:23:12.312Z,0.60
2023-04-18T08:26:15.193Z,0.70
2023-04-18T08:29:17.695Z,0.73
2023-04-18T08:32:20.023Z,0.70
2023-04-18T08:35:22.495Z,0.60
2023-04-18T08:38:24.784Z,0.50
2023-04-18T08:41:28.786Z,0.93
2023-04-18T08:44:31.379Z,0.70
2023-04-18T08:47:35.406Z,0.70
2023-04-18T08:50:37.787Z,0.77
2023-04-18T08:53:42.134Z,0.70
2023-04-18T08:56:45.207Z,0.65
2023-04-18T08:59:49.002Z,0.85
2023-04-18T09:02:57.260Z,0.70
2023-04-18T09:06:08.427Z,0.70
2023-04-18T09:09:10.756Z,0.65
2023-04-18T09:12:15.531Z,0.75
2023-04-18T09:15:20.897Z,1.05
2023-04-18T09:18:24.256Z,0.60
2023-04-18T09:21:28.057Z,1.10
2023-04-18T09:24:32.065Z,1.20
2023-04-18T09:27:34.898Z,0.70
2023-04-18T09:30:39.454Z,0.93
2023-04-18T09:33:52.828Z,0.70
2023-04-18T09:37:12.064Z,0.90
2023-04-18T09:40:21.523Z,0.57
2023-04-18T09:43:26.855Z,0.77
2023-04-18T09:46:31.768Z,1.40
2023-04-18T09:49:34.157Z,0.60
2023-04-18T09:52:41.069Z,0.60
2023-04-18T09:55:43.509Z,0.63
2023-04-18T09:58:47.673Z,0.60
2023-04-18T10:01:50.875Z,0.63
2023-04-18T10:04:54.535Z,0.60
2023-04-18T10:07:57.019Z,0.60
2023-04-18T10:10:59.515Z,0.38
2023-04-18T10:14:13.774Z,0.70
2023-04-18T10:17:16.367Z,0.60
2023-04-18T10:20:20.496Z,0.68
2023-04-18T10:23:43.234Z,1.23
2023-04-18T10:26:47.115Z,0.50
2023-04-18T10:29:51.280Z,0.60
2023-04-18T10:32:55.661Z,0.70
2023-04-18T10:35:58.866Z,0.77
2023-04-18T10:39:01.163Z,0.70
2023-04-18T10:42:03.575Z,0.77
2023-04-18T10:45:26.817Z,0.70
2023-04-18T10:48:32.926Z,0.70
2023-04-18T10:51:35.486Z,0.70
2023-04-18T10:54:40.755Z,0.60
2023-04-18T10:57:45.831Z,0.93
2023-04-18T11:00:50.352Z,0.70
2023-04-18T11:03:53.683Z,0.68
2023-04-18T11:06:57.604Z,0.80
2023-04-18T11:10:01.953Z,0.57
2023-04-18T11:13:06.596Z,0.75
2023-04-18T11:16:09.151Z,0.60
2023-04-18T11:19:21.879Z,0.77
2023-04-18T11:22:24.201Z,0.90
2023-04-18T11:25:37.310Z,1.13
2023-04-18T11:28:41.874Z,1.00
2023-04-18T11:31:51.405Z,0.50
2023-04-18T11:34:54.924Z,1.00
2023-04-18T11:37:57.236Z,0.95
2023-04-18T11:41:02.677Z,0.90
2023-04-18T11:44:06.485Z,1.20
2023-04-18T11:47:34.041Z,1.15
2023-04-18T11:50:37.708Z,0.77
2023-04-18T11:53:40.032Z,0.95
2023-04-18T11:56:50.276Z,0.80
2023-04-18T11:59:53.246Z,0.75
2023-04-18T12:02:55.702Z,0.68
2023-04-18T12:06:00.494Z,0.75
2023-04-18T12:09:03.012Z,0.75
2023-04-18T12:12:06.431Z,0.50
2023-04-18T12:15:13.883Z,0.70
2023-04-18T12:18:19.938Z,0.65
2023-04-18T12:21:22.272Z,0.60
2023-04-18T12:24:25.283Z,0.70
2023-04-18T12:27:47.135Z,0.97
2023-04-18T12:30:49.405Z,1.02
2023-04-18T12:33:51.753Z,0.90
2023-04-18T12:36:54.271Z,0.70
2023-04-18T12:39:56.670Z,0.80
2023-04-18T12:42:59.757Z,1.10
2023-04-18T12:46:03.394Z,0.70
2023-04-18T12:49:05.717Z,0.98
2023-04-18T12:52:08.278Z,0.70
2023-04-18T12:55:11.960Z,1.10
2023-04-18T12:58:18.643Z,1.00
2023-04-18T13:01:21.247Z,0.82
2023-04-18T13:04:23.817Z,0.82
2023-04-18T13:07:26.379Z,0.90
2023-04-18T13:10:28.874Z,1.00
2023-04-18T13:13:31.200Z,1.53
2023-04-18T13:16:33.677Z,0.60
2023-04-18T13:19:36.037Z,0.90
2023-04-18T13:22:39.161Z,0.80
2023-04-18T13:25:41.505Z,0.80
2023-04-18T13:28:43.785Z,1.00
2023-04-18T13:31:46.197Z,0.90
2023-04-18T13:34:48.845Z,0.85
2023-04-18T13:37:51.166Z,0.80
2023-04-18T13:41:04.444Z,0.70
2023-04-18T13:44:13.591Z,0.93
2023-04-18T13:47:16.347Z,0.82
2023-04-18T13:50:19.333Z,0.98
2023-04-18T13:53:21.774Z,0.65
2023-04-18T13:56:24.425Z,1.40
2023-04-18T13:59:27.131Z,0.97
2023-04-18T14:02:29.752Z,1.10
2023-04-18T14:05:32.203Z,0.82
2023-04-18T14:08:34.647Z,0.90
2023-04-18T14:11:38.528Z,1.17
2023-04-18T14:14:41.189Z,1.00
2023-04-18T14:17:45.454Z,0.90
2023-04-18T14:20:48.759Z,1.33
2023-04-18T14:23:52.385Z,1.40
2023-04-18T14:26:54.885Z,0.75
2023-04-18T14:29:57.322Z,1.43
2023-04-18T14:32:59.765Z,1.20
2023-04-18T14:36:02.827Z,0.95
2023-04-18T14:39:05.669Z,1.23
2023-04-18T14:42:08.022Z,0.90
2023-04-18T14:45:11.747Z,1.40
2023-04-18T14:48:14.185Z,0.80
2023-04-18T14:51:16.935Z,0.98
2023-04-18T14:54:19.365Z,1.20
2023-04-18T14:57:21.804Z,1.40
2023-04-18T15:00:27.148Z,0.83
2023-04-18T15:03:29.702Z,1.00
2023-04-18T15:06:32.739Z,1.40
2023-04-18T15:09:38.734Z,1.08
2023-04-18T15:12:41.958Z,1.13
2023-04-18T15:15:51.625Z,1.43
2023-04-18T15:18:53.926Z,0.93
2023-04-18T15:21:56.398Z,1.27
2023-04-18T15:24:58.718Z,0.93
2023-04-18T15:28:01.086Z,1.15
2023-04-18T15:31:06.016Z,1.33
2023-04-18T15:34:08.413Z,1.65
2023-04-18T15:37:10.913Z,0.90
2023-04-18T15:40:16.292Z,1.05
2023-04-18T15:43:18.700Z,1.27
2023-04-18T15:46:21.090Z,0.83
2023-04-18T15:49:23.619Z,1.13
2023-04-18T15:52:26.053Z,1.30
2023-04-18T15:55:28.519Z,1.10
2023-04-18T15:58:33.902Z,1.00
2023-04-18T16:01:36.746Z,1.07
2023-04-18T16:04:39.181Z,1.35
2023-04-18T16:07:42.653Z,1.08
2023-04-18T16:10:45.124Z,1.02
2023-04-18T16:13:47.888Z,1.40
2023-04-18T16:17:00.504Z,1.30
2023-04-18T16:20:03.756Z,1.15
2023-04-18T16:23:06.285Z,1.20
2023-04-18T16:26:09.042Z,1.50
2023-04-18T16:29:11.380Z,1.13
2023-04-18T16:32:13.973Z,1.20
2023-04-18T16:35:16.403Z,1.10
2023-04-18T16:38:18.783Z,1.35
2023-04-18T16:41:21.066Z,1.33
2023-04-18T16:44:23.498Z,1.27
2023-04-18T16:47:26.053Z,1.47
2023-04-18T16:50:28.409Z,1.20
2023-04-18T16:53:30.823Z,1.20
2023-04-18T16:56:34.118Z,1.13
2023-04-18T16:59:36.641Z,1.27
2023-04-18T17:02:42.922Z,1.13
2023-04-18T17:05:46.479Z,1.20
2023-04-18T17:08:49.204Z,1.27
2023-04-18T17:11:51.607Z,1.30
2023-04-18T17:14:53.926Z,1.27
2023-04-18T17:18:01.412Z,1.00
2023-04-18T17:21:04.092Z,1.25
2023-04-18T17:24:07.228Z,1.85
2023-04-18T17:30:32.120Z,1.42
2023-04-18T17:33:34.643Z,1.57
2023-04-18T17:36:38.846Z,1.45
2023-04-18T17:39:41.901Z,1.48
2023-04-18T17:42:44.492Z,1.30
2023-04-18T17:45:47.125Z,1.60
2023-04-18T17:48:49.772Z,1.60
2023-04-18T17:51:52.672Z,1.50
2023-04-18T17:54:57.216Z,1.30
2023-04-18T17:57:59.764Z,1.25
2023-04-18T18:01:02.362Z,1.75
2023-04-18T18:04:07.526Z,1.60
2023-04-18T18:07:13.298Z,1.92
2023-04-18T18:10:41.067Z,2.10
2023-04-18T18:13:50.937Z,1.83
2023-04-18T18:17:03.437Z,2.58
2023-04-18T18:20:15.321Z,1.93
2023-04-18T18:23:18.779Z,2.08
2023-04-18T18:26:21.477Z,2.15
2023-04-18T18:29:37.902Z,1.95
2023-04-18T18:32:40.759Z,2.22
2023-04-18T18:35:43.381Z,1.90
2023-04-18T18:39:48.137Z,1.98
2023-04-18T18:42:51.699Z,2.38
2023-04-18T18:45:54.306Z,2.50
2023-04-18T18:48:56.931Z,2.72
2023-04-18T18:51:59.480Z,2.57
2023-04-18T18:55:02.079Z,3.47
2023-04-18T18:58:07.924Z,2.78
2023-04-18T19:01:13.805Z,4.13
2023-04-18T19:04:16.606Z,3.53
2023-04-18T19:07:21.221Z,3.17
2023-04-18T19:10:25.990Z,3.30
2023-04-18T19:13:28.514Z,3.05
2023-04-18T19:16:30.958Z,2.83
2023-04-18T19:19:34.654Z,3.10
2023-04-18T19:22:38.035Z,2.90
2023-04-18T19:25:43.209Z,3.67
2023-04-18T19:28:48.089Z,3.10
2023-04-18T19:31:50.524Z,2.75
2023-04-18T19:34:52.966Z,3.05
2023-04-18T19:38:05.755Z,3.00
2023-04-18T19:41:18.954Z,2.72
2023-04-18T19:44:25.804Z,2.58
2023-04-18T19:47:32.253Z,2.45
2023-04-18T19:50:35.097Z,2.50
2023-04-18T19:53:37.485Z,2.27
2023-04-18T19:56:39.796Z,2.35
2023-04-18T19:59:42.291Z,1.98
2023-04-18T20:02:44.823Z,1.92
2023-04-18T20:05:47.330Z,1.75
2023-04-18T20:08:49.725Z,2.00
2023-04-18T20:11:54.356Z,1.63
2023-04-18T20:15:08.607Z,2.00
2023-04-18T20:18:14.988Z,1.92
2023-04-18T20:21:17.597Z,1.67
2023-04-18T20:24:21.176Z,1.80
2023-04-18T20:27:23.552Z,1.98
2023-04-18T20:30:26.505Z,1.63
2023-04-18T20:33:38.635Z,1.80
2023-04-18T20:36:53.240Z,1.73
2023-04-18T20:40:09.747Z,1.40
2023-04-18T20:43:12.753Z,1.10
2023-04-18T20:46:16.219Z,1.20
2023-04-18T20:49:18.663Z,1.30
2023-04-18T20:52:21.166Z,1.20
2023-04-18T20:55:23.464Z,1.20
2023-04-18T20:58:29.086Z,1.23
2023-04-18T21:01:32.880Z,1.17
2023-04-18T21:04:57.058Z,1.13
2023-04-18T21:08:08.852Z,1.30
2023-04-18T21:11:16.690Z,1.30
2023-04-18T21:14:22.965Z,1.10
2023-04-18T21:17:29.037Z,1.63
2023-04-18T21:20:45.697Z,1.40
2023-04-18T21:23:51.218Z,1.30
2023-04-18T21:27:07.975Z,1.33
2023-04-18T21:30:16.013Z,1.55
2023-04-18T21:36:50.330Z,1.48
2023-04-18T21:39:55.711Z,1.65
2023-04-18T21:43:12.176Z,1.80
2023-04-18T21:46:47.106Z,1.60
2023-04-18T21:50:11.403Z,1.60
2023-04-18T21:53:19.297Z,1.83
2023-04-18T21:56:31.505Z,1.83
2023-04-18T21:59:44.803Z,1.70
2023-04-18T22:06:08.411Z,1.80
2023-04-18T22:09:11.895Z,1.67
2023-04-18T22:12:14.430Z,2.00
2023-04-18T22:15:22.434Z,1.90
2023-04-18T22:18:28.494Z,1.77
2023-04-18T22:21:35.287Z,1.90
2023-04-18T22:24:47.372Z,1.83
2023-04-18T22:27:58.564Z,1.73
2023-04-18T22:31:06.875Z,1.60
2023-04-18T22:34:13.983Z,2.03
2023-04-18T22:37:21.627Z,1.80
2023-04-18T22:40:27.022Z,1.90
2023-04-18T22:43:35.260Z,1.95
2023-04-18T22:46:43.718Z,2.20
2023-04-18T22:53:05.905Z,2.20
2023-04-18T22:56:16.056Z,1.92
2023-04-18T22:59:32.490Z,1.80
2023-04-18T23:02:39.937Z,2.10
2023-04-18T23:05:47.204Z,2.50
2023-04-18T23:08:56.197Z,2.22
2023-04-18T23:12:00.924Z,2.10
2023-04-18T23:15:20.323Z,2.17
2023-04-18T23:18:30.451Z,1.90
2023-04-18T23:21:38.096Z,2.30
2023-04-18T23:24:45.106Z,2.00
2023-04-18T23:27:52.290Z,2.00
2023-04-18T23:30:59.069Z,1.98
2023-04-18T23:34:04.272Z,2.20
2023-04-18T23:37:06.588Z,2.47
2023-04-18T23:40:12.696Z,2.22
2023-04-18T23:46:58.341Z,2.45
2023-04-18T23:50:10.794Z,2.00
2023-04-18T23:53:16.593Z,2.38
2023-04-18T23:56:19.563Z,2.53
2023-04-18T23:59:25.163Z,2.25
